sensor_id;sensor_type;location;lat;lon;timestamp;P1;durP1;ratioP1;P2;durP2;ratioP2
74328;SDS011;62745;51.060;13.786;2024-01-15T00:02:14;7.87;;;3.17;;
74328;SDS011;62745;51.060;13.786;2024-01-15T00:04:40;12.13;;;5.03;;
74328;SDS011;62745;51.060;13.786;2024-01-15T00:07:06;13.30;;;4.70;;
74328;SDS011;62745;51.060;13.786;2024-01-15T00:09:32;7.65;;;3.33;;
74328;SDS011;62745;51.060;13.786;2024-01-15T00:11:58;8.80;;;3.83;;
74328;SDS011;62745;51.060;13.786;2024-01-15T00:14:24;9.57;;;4.75;;
74328;SDS011;62745;51.060;13.786;2024-01-15T00:16:49;7.30;;;3.47;;
74328;SDS011;62745;51.060;13.786;2024-01-15T00:19:16;8.70;;;3.70;;
74328;SDS011;62745;51.060;13.786;2024-01-15T00:21:41;10.73;;;4.15;;
74328;SDS011;62745;51.060;13.786;2024-01-15T00:24:07;6.43;;;3.60;;
74328;SDS011;62745;51.060;13.786;2024-01-15T00:26:32;11.13;;;5.77;;
74328;SDS011;62745;51.060;13.786;2024-01-15T00:28:58;10.73;;;4.70;;
74328;SDS011;62745;51.060;13.786;2024-01-15T00:31:23;9.10;;;4.20;;
74328;SDS011;62745;51.060;13.786;2024-01-15T00:33:48;9.67;;;3.80;;
74328;SDS011;62745;51.060;13.786;2024-01-15T00:36:13;8.60;;;4.23;;
74328;SDS011;62745;51.060;13.786;2024-01-15T00:38:39;10.25;;;4.20;;
74328;SDS011;62745;51.060;13.786;2024-01-15T00:41:05;9.20;;;4.67;;
74328;SDS011;62745;51.060;13.786;2024-01-15T00:43:30;12.97;;;4.90;;
74328;SDS011;62745;51.060;13.786;2024-01-15T00:45:55;8.88;;;3.70;;
74328;SDS011;62745;51.060;13.786;2024-01-15T00:48:21;8.93;;;4.30;;
74328;SDS011;62745;51.060;13.786;2024-01-15T00:50:46;7.60;;;3.90;;
74328;SDS011;62745;51.060;13.786;2024-01-15T00:53:11;10.35;;;4.13;;
74328;SDS011;62745;51.060;13.786;2024-01-15T00:55:37;10.13;;;4.70;;
74328;SDS011;62745;51.060;13.786;2024-01-15T00:58:02;10.05;;;3.55;;
74328;SDS011;62745;51.060;13.786;2024-01-15T01:00:28;10.25;;;4.93;;
74328;SDS011;62745;51.060;13.786;2024-01-15T01:02:53;10.00;;;4.70;;
74328;SDS011;62745;51.060;13.786;2024-01-15T01:05:19;10.03;;;4.57;;
74328;SDS011;62745;51.060;13.786;2024-01-15T01:07:44;11.57;;;3.90;;
74328;SDS011;62745;51.060;13.786;2024-01-15T01:10:09;9.17;;;4.00;;
74328;SDS011;62745;51.060;13.786;2024-01-15T01:12:34;8.90;;;4.03;;
74328;SDS011;62745;51.060;13.786;2024-01-15T01:15:00;10.43;;;4.40;;
74328;SDS011;62745;51.060;13.786;2024-01-15T01:17:25;9.05;;;4.05;;
74328;SDS011;62745;51.060;13.786;2024-01-15T01:19:50;11.77;;;5.37;;
74328;SDS011;62745;51.060;13.786;2024-01-15T01:22:16;10.20;;;4.43;;
74328;SDS011;62745;51.060;13.786;2024-01-15T01:24:41;11.67;;;4.40;;
74328;SDS011;62745;51.060;13.786;2024-01-15T01:27:06;9.37;;;4.47;;
74328;SDS011;62745;51.060;13.786;2024-01-15T01:29:32;12.43;;;4.95;;
74328;SDS011;62745;51.060;13.786;2024-01-15T01:31:57;10.00;;;4.70;;
74328;SDS011;62745;51.060;13.786;2024-01-15T01:34:22;10.20;;;4.47;;
74328;SDS011;62745;51.060;13.786;2024-01-15T01:36:48;9.63;;;3.78;;
74328;SDS011;62745;51.060;13.786;2024-01-15T01:39:13;11.27;;;4.93;;
74328;SDS011;62745;51.060;13.786;2024-01-15T01:41:39;10.02;;;4.47;;
74328;SDS011;62745;51.060;13.786;2024-01-15T01:44:05;9.52;;;4.57;;
74328;SDS011;62745;51.060;13.786;2024-01-15T01:46:30;9.95;;;4.07;;
74328;SDS011;62745;51.060;13.786;2024-01-15T01:48:56;16.58;;;5.93;;
74328;SDS011;62745;51.060;13.786;2024-01-15T01:51:22;10.70;;;5.63;;
74328;SDS011;62745;51.060;13.786;2024-01-15T01:53:50;11.63;;;5.00;;
74328;SDS011;62745;51.060;13.786;2024-01-15T01:56:16;11.18;;;5.13;;
74328;SDS011;62745;51.060;13.786;2024-01-15T01:58:42;9.45;;;4.10;;
74328;SDS011;62745;51.060;13.786;2024-01-15T02:01:08;14.73;;;7.03;;
74328;SDS011;62745;51.060;13.786;2024-01-15T02:03:34;10.82;;;3.85;;
74328;SDS011;62745;51.060;13.786;2024-01-15T02:06:00;9.88;;;4.97;;
74328;SDS011;62745;51.060;13.786;2024-01-15T02:08:26;12.00;;;4.47;;
74328;SDS011;62745;51.060;13.786;2024-01-15T02:10:51;12.15;;;5.80;;
74328;SDS011;62745;51.060;13.786;2024-01-15T02:13:17;10.80;;;5.50;;
74328;SDS011;62745;51.060;13.786;2024-01-15T02:15:43;9.63;;;3.90;;
74328;SDS011;62745;51.060;13.786;2024-01-15T02:18:08;12.27;;;5.07;;
74328;SDS011;62745;51.060;13.786;2024-01-15T02:20:33;9.80;;;4.63;;
74328;SDS011;62745;51.060;13.786;2024-01-15T02:25:35;8.90;;;4.05;;
74328;SDS011;62745;51.060;13.786;2024-01-15T02:28:03;12.07;;;5.25;;
74328;SDS011;62745;51.060;13.786;2024-01-15T02:30:28;10.02;;;4.22;;
74328;SDS011;62745;51.060;13.786;2024-01-15T02:32:55;8.85;;;4.15;;
74328;SDS011;62745;51.060;13.786;2024-01-15T02:35:20;9.50;;;4.43;;
74328;SDS011;62745;51.060;13.786;2024-01-15T02:37:45;12.07;;;5.83;;
74328;SDS011;62745;51.060;13.786;2024-01-15T02:40:11;12.03;;;4.57;;
74328;SDS011;62745;51.060;13.786;2024-01-15T02:42:36;15.73;;;6.15;;
74328;SDS011;62745;51.060;13.786;2024-01-15T02:45:01;11.77;;;4.63;;
74328;SDS011;62745;51.060;13.786;2024-01-15T02:47:27;8.40;;;4.27;;
74328;SDS011;62745;51.060;13.786;2024-01-15T02:49:52;10.43;;;4.33;;
74328;SDS011;62745;51.060;13.786;2024-01-15T02:52:17;9.87;;;4.97;;
74328;SDS011;62745;51.060;13.786;2024-01-15T02:54:43;13.18;;;5.80;;
74328;SDS011;62745;51.060;13.786;2024-01-15T02:57:08;9.20;;;3.80;;
74328;SDS011;62745;51.060;13.786;2024-01-15T02:59:33;11.10;;;4.87;;
74328;SDS011;62745;51.060;13.786;2024-01-15T03:01:58;11.07;;;5.30;;
74328;SDS011;62745;51.060;13.786;2024-01-15T03:04:24;12.03;;;5.73;;
74328;SDS011;62745;51.060;13.786;2024-01-15T03:06:49;13.97;;;4.97;;
74328;SDS011;62745;51.060;13.786;2024-01-15T03:09:14;15.80;;;6.20;;
74328;SDS011;62745;51.060;13.786;2024-01-15T03:11:40;13.83;;;5.67;;
74328;SDS011;62745;51.060;13.786;2024-01-15T03:14:06;10.57;;;5.03;;
74328;SDS011;62745;51.060;13.786;2024-01-15T03:16:31;11.90;;;5.50;;
74328;SDS011;62745;51.060;13.786;2024-01-15T03:18:56;11.53;;;5.00;;
74328;SDS011;62745;51.060;13.786;2024-01-15T03:21:21;9.18;;;4.63;;
74328;SDS011;62745;51.060;13.786;2024-01-15T03:23:47;9.83;;;3.90;;
74328;SDS011;62745;51.060;13.786;2024-01-15T03:26:12;12.57;;;5.83;;
74328;SDS011;62745;51.060;13.786;2024-01-15T03:28:37;13.77;;;5.20;;
74328;SDS011;62745;51.060;13.786;2024-01-15T03:31:02;13.70;;;5.03;;
74328;SDS011;62745;51.060;13.786;2024-01-15T03:33:28;10.60;;;5.63;;
74328;SDS011;62745;51.060;13.786;2024-01-15T03:35:53;15.97;;;7.30;;
74328;SDS011;62745;51.060;13.786;2024-01-15T03:38:18;13.38;;;5.85;;
74328;SDS011;62745;51.060;13.786;2024-01-15T03:40:44;13.00;;;6.33;;
74328;SDS011;62745;51.060;13.786;2024-01-15T03:43:09;12.07;;;6.17;;
74328;SDS011;62745;51.060;13.786;2024-01-15T03:45:34;11.30;;;5.23;;
74328;SDS011;62745;51.060;13.786;2024-01-15T03:47:59;13.60;;;6.57;;
74328;SDS011;62745;51.060;13.786;2024-01-15T03:50:25;14.50;;;7.40;;
74328;SDS011;62745;51.060;13.786;2024-01-15T03:52:50;13.18;;;6.07;;
74328;SDS011;62745;51.060;13.786;2024-01-15T03:55:15;16.20;;;5.43;;
74328;SDS011;62745;51.060;13.786;2024-01-15T03:57:40;13.30;;;6.07;;
74328;SDS011;62745;51.060;13.786;2024-01-15T04:00:06;14.97;;;6.83;;
74328;SDS011;62745;51.060;13.786;2024-01-15T04:02:32;13.00;;;6.47;;
74328;SDS011;62745;51.060;13.786;2024-01-15T04:04:58;13.77;;;6.05;;
74328;SDS011;62745;51.060;13.786;2024-01-15T04:07:23;13.47;;;6.50;;
74328;SDS011;62745;51.060;13.786;2024-01-15T04:09:48;16.45;;;7.72;;
74328;SDS011;62745;51.060;13.786;2024-01-15T04:12:13;15.50;;;7.13;;
74328;SDS011;62745;51.060;13.786;2024-01-15T04:14:39;12.67;;;6.27;;
74328;SDS011;62745;51.060;13.786;2024-01-15T04:17:04;14.50;;;6.40;;
74328;SDS011;62745;51.060;13.786;2024-01-15T04:19:29;17.85;;;6.68;;
74328;SDS011;62745;51.060;13.786;2024-01-15T04:21:54;14.87;;;5.80;;
74328;SDS011;62745;51.060;13.786;2024-01-15T04:24:20;11.13;;;6.03;;
74328;SDS011;62745;51.060;13.786;2024-01-15T04:26:45;11.13;;;5.83;;
74328;SDS011;62745;51.060;13.786;2024-01-15T04:29:10;12.95;;;6.55;;
74328;SDS011;62745;51.060;13.786;2024-01-15T04:31:36;13.63;;;6.03;;
74328;SDS011;62745;51.060;13.786;2024-01-15T04:34:01;14.30;;;6.47;;
74328;SDS011;62745;51.060;13.786;2024-01-15T04:36:26;11.43;;;5.45;;
74328;SDS011;62745;51.060;13.786;2024-01-15T04:38:51;13.20;;;6.17;;
74328;SDS011;62745;51.060;13.786;2024-01-15T04:41:17;15.40;;;6.03;;
74328;SDS011;62745;51.060;13.786;2024-01-15T04:43:42;11.07;;;5.43;;
74328;SDS011;62745;51.060;13.786;2024-01-15T04:46:07;13.75;;;6.72;;
74328;SDS011;62745;51.060;13.786;2024-01-15T04:48:33;15.00;;;6.05;;
74328;SDS011;62745;51.060;13.786;2024-01-15T04:50:59;11.80;;;5.95;;
74328;SDS011;62745;51.060;13.786;2024-01-15T04:53:24;15.20;;;7.57;;
74328;SDS011;62745;51.060;13.786;2024-01-15T04:55:50;15.03;;;5.77;;
74328;SDS011;62745;51.060;13.786;2024-01-15T04:58:15;13.37;;;6.30;;
74328;SDS011;62745;51.060;13.786;2024-01-15T05:00:40;10.73;;;4.43;;
74328;SDS011;62745;51.060;13.786;2024-01-15T05:03:05;10.17;;;4.17;;
74328;SDS011;62745;51.060;13.786;2024-01-15T05:05:31;15.47;;;7.67;;
74328;SDS011;62745;51.060;13.786;2024-01-15T05:07:56;12.70;;;5.63;;
74328;SDS011;62745;51.060;13.786;2024-01-15T05:10:21;14.07;;;5.83;;
74328;SDS011;62745;51.060;13.786;2024-01-15T05:12:46;15.37;;;6.60;;
74328;SDS011;62745;51.060;13.786;2024-01-15T05:15:12;17.63;;;6.37;;
74328;SDS011;62745;51.060;13.786;2024-01-15T05:17:37;10.63;;;5.33;;
74328;SDS011;62745;51.060;13.786;2024-01-15T05:20:02;13.93;;;5.60;;
74328;SDS011;62745;51.060;13.786;2024-01-15T05:22:28;11.98;;;4.57;;
74328;SDS011;62745;51.060;13.786;2024-01-15T05:24:53;12.27;;;5.07;;
74328;SDS011;62745;51.060;13.786;2024-01-15T05:27:18;16.83;;;6.30;;
74328;SDS011;62745;51.060;13.786;2024-01-15T05:29:44;12.70;;;5.23;;
74328;SDS011;62745;51.060;13.786;2024-01-15T05:32:09;12.77;;;4.68;;
74328;SDS011;62745;51.060;13.786;2024-01-15T05:34:34;14.83;;;7.07;;
74328;SDS011;62745;51.060;13.786;2024-01-15T05:37:00;12.23;;;5.77;;
74328;SDS011;62745;51.060;13.786;2024-01-15T05:39:25;13.37;;;5.43;;
74328;SDS011;62745;51.060;13.786;2024-01-15T05:41:50;10.60;;;4.47;;
74328;SDS011;62745;51.060;13.786;2024-01-15T05:44:15;12.27;;;5.10;;
74328;SDS011;62745;51.060;13.786;2024-01-15T05:46:41;12.37;;;4.73;;
74328;SDS011;62745;51.060;13.786;2024-01-15T05:49:06;10.87;;;5.70;;
74328;SDS011;62745;51.060;13.786;2024-01-15T05:51:31;12.90;;;6.07;;
74328;SDS011;62745;51.060;13.786;2024-01-15T05:53:56;13.53;;;5.90;;
74328;SDS011;62745;51.060;13.786;2024-01-15T05:56:22;15.70;;;6.17;;
74328;SDS011;62745;51.060;13.786;2024-01-15T05:58:49;13.05;;;6.13;;
74328;SDS011;62745;51.060;13.786;2024-01-15T06:01:14;13.57;;;5.73;;
74328;SDS011;62745;51.060;13.786;2024-01-15T06:03:39;8.93;;;4.13;;
74328;SDS011;62745;51.060;13.786;2024-01-15T06:06:04;15.83;;;5.70;;
74328;SDS011;62745;51.060;13.786;2024-01-15T06:08:30;15.38;;;5.18;;
74328;SDS011;62745;51.060;13.786;2024-01-15T06:10:56;13.10;;;5.77;;
74328;SDS011;62745;51.060;13.786;2024-01-15T06:13:21;10.60;;;5.53;;
74328;SDS011;62745;51.060;13.786;2024-01-15T06:15:46;12.57;;;5.47;;
74328;SDS011;62745;51.060;13.786;2024-01-15T06:18:12;10.77;;;4.67;;
74328;SDS011;62745;51.060;13.786;2024-01-15T06:20:37;15.20;;;5.45;;
74328;SDS011;62745;51.060;13.786;2024-01-15T06:23:03;11.07;;;4.35;;
74328;SDS011;62745;51.060;13.786;2024-01-15T06:25:28;10.02;;;4.07;;
74328;SDS011;62745;51.060;13.786;2024-01-15T06:27:54;11.50;;;4.70;;
74328;SDS011;62745;51.060;13.786;2024-01-15T06:30:19;16.17;;;5.87;;
74328;SDS011;62745;51.060;13.786;2024-01-15T06:32:44;12.53;;;5.03;;
74328;SDS011;62745;51.060;13.786;2024-01-15T06:35:09;13.30;;;5.97;;
74328;SDS011;62745;51.060;13.786;2024-01-15T06:37:36;10.10;;;4.40;;
74328;SDS011;62745;51.060;13.786;2024-01-15T06:40:01;13.10;;;5.87;;
74328;SDS011;62745;51.060;13.786;2024-01-15T06:42:28;12.02;;;5.30;;
74328;SDS011;62745;51.060;13.786;2024-01-15T06:44:53;11.60;;;4.93;;
74328;SDS011;62745;51.060;13.786;2024-01-15T06:47:18;10.70;;;3.93;;
74328;SDS011;62745;51.060;13.786;2024-01-15T06:49:43;8.10;;;3.88;;
74328;SDS011;62745;51.060;13.786;2024-01-15T06:52:09;9.40;;;4.50;;
74328;SDS011;62745;51.060;13.786;2024-01-15T06:54:34;14.23;;;3.70;;
74328;SDS011;62745;51.060;13.786;2024-01-15T06:56:59;9.67;;;4.93;;
74328;SDS011;62745;51.060;13.786;2024-01-15T06:59:25;11.90;;;5.07;;
74328;SDS011;62745;51.060;13.786;2024-01-15T07:01:50;9.33;;;4.40;;
74328;SDS011;62745;51.060;13.786;2024-01-15T07:04:15;10.50;;;3.97;;
74328;SDS011;62745;51.060;13.786;2024-01-15T07:06:41;10.57;;;5.45;;
74328;SDS011;62745;51.060;13.786;2024-01-15T07:09:06;11.43;;;5.23;;
74328;SDS011;62745;51.060;13.786;2024-01-15T07:11:32;7.43;;;3.40;;
74328;SDS011;62745;51.060;13.786;2024-01-15T07:13:58;9.30;;;4.43;;
74328;SDS011;62745;51.060;13.786;2024-01-15T07:16:23;8.57;;;4.15;;
74328;SDS011;62745;51.060;13.786;2024-01-15T07:18:48;12.83;;;6.00;;
74328;SDS011;62745;51.060;13.786;2024-01-15T07:21:13;9.13;;;4.30;;
74328;SDS011;62745;51.060;13.786;2024-01-15T07:23:39;9.87;;;3.93;;
74328;SDS011;62745;51.060;13.786;2024-01-15T07:26:04;10.77;;;4.60;;
74328;SDS011;62745;51.060;13.786;2024-01-15T07:28:30;10.20;;;4.38;;
74328;SDS011;62745;51.060;13.786;2024-01-15T07:30:56;11.73;;;4.95;;
74328;SDS011;62745;51.060;13.786;2024-01-15T07:33:22;9.43;;;4.32;;
74328;SDS011;62745;51.060;13.786;2024-01-15T07:35:47;10.40;;;4.43;;
74328;SDS011;62745;51.060;13.786;2024-01-15T07:38:12;9.17;;;3.63;;
74328;SDS011;62745;51.060;13.786;2024-01-15T07:40:38;9.30;;;3.83;;
74328;SDS011;62745;51.060;13.786;2024-01-15T07:43:03;9.17;;;4.03;;
74328;SDS011;62745;51.060;13.786;2024-01-15T07:45:29;11.30;;;4.38;;
74328;SDS011;62745;51.060;13.786;2024-01-15T07:47:55;7.03;;;3.35;;
74328;SDS011;62745;51.060;13.786;2024-01-15T07:50:20;10.77;;;4.77;;
74328;SDS011;62745;51.060;13.786;2024-01-15T07:52:46;8.13;;;3.25;;
74328;SDS011;62745;51.060;13.786;2024-01-15T07:55:11;11.73;;;4.73;;
74328;SDS011;62745;51.060;13.786;2024-01-15T07:57:36;7.40;;;4.17;;
74328;SDS011;62745;51.060;13.786;2024-01-15T08:00:02;11.40;;;5.13;;
74328;SDS011;62745;51.060;13.786;2024-01-15T08:02:31;11.88;;;4.55;;
74328;SDS011;62745;51.060;13.786;2024-01-15T08:04:57;12.73;;;5.68;;
74328;SDS011;62745;51.060;13.786;2024-01-15T08:07:23;9.73;;;4.97;;
74328;SDS011;62745;51.060;13.786;2024-01-15T08:09:50;12.07;;;4.75;;
74328;SDS011;62745;51.060;13.786;2024-01-15T08:12:16;9.60;;;3.88;;
74328;SDS011;62745;51.060;13.786;2024-01-15T08:14:41;9.43;;;3.83;;
74328;SDS011;62745;51.060;13.786;2024-01-15T08:17:06;7.57;;;3.80;;
74328;SDS011;62745;51.060;13.786;2024-01-15T08:19:31;8.90;;;4.03;;
74328;SDS011;62745;51.060;13.786;2024-01-15T08:21:57;9.47;;;3.67;;
74328;SDS011;62745;51.060;13.786;2024-01-15T08:24:22;10.83;;;4.23;;
74328;SDS011;62745;51.060;13.786;2024-01-15T08:26:47;7.07;;;3.43;;
74328;SDS011;62745;51.060;13.786;2024-01-15T08:29:12;9.67;;;3.80;;
74328;SDS011;62745;51.060;13.786;2024-01-15T08:31:38;9.73;;;4.27;;
74328;SDS011;62745;51.060;13.786;2024-01-15T08:34:03;10.93;;;3.83;;
74328;SDS011;62745;51.060;13.786;2024-01-15T08:36:28;7.90;;;3.10;;
74328;SDS011;62745;51.060;13.786;2024-01-15T08:38:56;9.77;;;4.55;;
74328;SDS011;62745;51.060;13.786;2024-01-15T08:41:22;9.37;;;3.63;;
74328;SDS011;62745;51.060;13.786;2024-01-15T08:43:48;5.97;;;3.15;;
74328;SDS011;62745;51.060;13.786;2024-01-15T08:46:13;8.63;;;3.97;;
74328;SDS011;62745;51.060;13.786;2024-01-15T08:48:40;9.70;;;4.30;;
74328;SDS011;62745;51.060;13.786;2024-01-15T08:51:05;8.65;;;3.53;;
74328;SDS011;62745;51.060;13.786;2024-01-15T08:53:30;7.60;;;3.17;;
74328;SDS011;62745;51.060;13.786;2024-01-15T08:55:56;9.90;;;3.83;;
74328;SDS011;62745;51.060;13.786;2024-01-15T08:58:22;7.50;;;3.43;;
74328;SDS011;62745;51.060;13.786;2024-01-15T09:00:48;8.40;;;3.55;;
74328;SDS011;62745;51.060;13.786;2024-01-15T09:03:13;8.97;;;4.13;;
74328;SDS011;62745;51.060;13.786;2024-01-15T09:05:39;8.82;;;3.53;;
74328;SDS011;62745;51.060;13.786;2024-01-15T09:08:05;7.40;;;3.13;;
74328;SDS011;62745;51.060;13.786;2024-01-15T09:10:31;8.50;;;4.53;;
74328;SDS011;62745;51.060;13.786;2024-01-15T09:12:56;7.00;;;3.43;;
74328;SDS011;62745;51.060;13.786;2024-01-15T09:15:21;7.93;;;3.97;;
74328;SDS011;62745;51.060;13.786;2024-01-15T09:17:46;7.33;;;3.23;;
74328;SDS011;62745;51.060;13.786;2024-01-15T09:20:12;9.63;;;3.37;;
74328;SDS011;62745;51.060;13.786;2024-01-15T09:22:40;12.60;;;4.43;;
74328;SDS011;62745;51.060;13.786;2024-01-15T09:25:08;7.80;;;3.80;;
74328;SDS011;62745;51.060;13.786;2024-01-15T09:27:36;12.05;;;4.13;;
74328;SDS011;62745;51.060;13.786;2024-01-15T09:30:02;9.10;;;4.13;;
74328;SDS011;62745;51.060;13.786;2024-01-15T09:32:29;8.90;;;3.47;;
74328;SDS011;62745;51.060;13.786;2024-01-15T09:34:55;6.33;;;3.37;;
74328;SDS011;62745;51.060;13.786;2024-01-15T09:37:20;8.45;;;3.85;;
74328;SDS011;62745;51.060;13.786;2024-01-15T09:39:45;7.47;;;3.53;;
74328;SDS011;62745;51.060;13.786;2024-01-15T09:42:13;7.45;;;2.85;;
74328;SDS011;62745;51.060;13.786;2024-01-15T09:44:39;7.85;;;3.08;;
74328;SDS011;62745;51.060;13.786;2024-01-15T09:47:04;9.27;;;3.35;;
74328;SDS011;62745;51.060;13.786;2024-01-15T09:49:30;6.90;;;3.28;;
74328;SDS011;62745;51.060;13.786;2024-01-15T09:51:56;8.60;;;3.40;;
74328;SDS011;62745;51.060;13.786;2024-01-15T09:54:23;6.93;;;2.92;;
74328;SDS011;62745;51.060;13.786;2024-01-15T09:56:48;9.82;;;4.20;;
74328;SDS011;62745;51.060;13.786;2024-01-15T09:59:17;6.45;;;3.13;;
74328;SDS011;62745;51.060;13.786;2024-01-15T10:01:44;6.30;;;2.85;;
74328;SDS011;62745;51.060;13.786;2024-01-15T10:04:10;9.25;;;3.22;;
74328;SDS011;62745;51.060;13.786;2024-01-15T10:06:38;8.90;;;2.33;;
74328;SDS011;62745;51.060;13.786;2024-01-15T10:09:07;7.82;;;3.38;;
74328;SDS011;62745;51.060;13.786;2024-01-15T10:11:33;6.53;;;2.70;;
74328;SDS011;62745;51.060;13.786;2024-01-15T10:13:58;11.05;;;4.20;;
74328;SDS011;62745;51.060;13.786;2024-01-15T10:16:23;8.43;;;4.03;;
74328;SDS011;62745;51.060;13.786;2024-01-15T10:18:49;6.67;;;3.10;;
74328;SDS011;62745;51.060;13.786;2024-01-15T10:21:14;10.00;;;3.90;;
74328;SDS011;62745;51.060;13.786;2024-01-15T10:23:40;7.88;;;3.22;;
74328;SDS011;62745;51.060;13.786;2024-01-15T10:26:06;9.35;;;3.10;;
74328;SDS011;62745;51.060;13.786;2024-01-15T10:28:31;7.23;;;3.03;;
74328;SDS011;62745;51.060;13.786;2024-01-15T10:30:57;7.38;;;2.95;;
74328;SDS011;62745;51.060;13.786;2024-01-15T10:33:24;5.40;;;3.00;;
74328;SDS011;62745;51.060;13.786;2024-01-15T10:35:59;4.75;;;2.33;;
74328;SDS011;62745;51.060;13.786;2024-01-15T10:38:25;5.53;;;2.55;;
74328;SDS011;62745;51.060;13.786;2024-01-15T10:40:51;8.73;;;3.38;;
74328;SDS011;62745;51.060;13.786;2024-01-15T10:43:17;8.18;;;2.83;;
74328;SDS011;62745;51.060;13.786;2024-01-15T10:45:45;9.18;;;3.20;;
74328;SDS011;62745;51.060;13.786;2024-01-15T10:48:12;6.53;;;3.17;;
74328;SDS011;62745;51.060;13.786;2024-01-15T10:50:37;7.80;;;3.13;;
74328;SDS011;62745;51.060;13.786;2024-01-15T10:53:04;8.60;;;3.88;;
74328;SDS011;62745;51.060;13.786;2024-01-15T10:55:30;7.70;;;2.60;;
74328;SDS011;62745;51.060;13.786;2024-01-15T10:57:57;7.95;;;2.63;;
74328;SDS011;62745;51.060;13.786;2024-01-15T11:00:22;5.80;;;2.63;;
74328;SDS011;62745;51.060;13.786;2024-01-15T11:02:50;8.90;;;3.33;;
74328;SDS011;62745;51.060;13.786;2024-01-15T11:05:16;9.27;;;3.05;;
74328;SDS011;62745;51.060;13.786;2024-01-15T11:07:43;8.07;;;3.40;;
74328;SDS011;62745;51.060;13.786;2024-01-15T11:10:14;9.73;;;3.20;;
74328;SDS011;62745;51.060;13.786;2024-01-15T11:13:39;9.40;;;3.78;;
74328;SDS011;62745;51.060;13.786;2024-01-15T11:16:09;7.90;;;3.45;;
74328;SDS011;62745;51.060;13.786;2024-01-15T11:18:37;5.65;;;2.20;;
74328;SDS011;62745;51.060;13.786;2024-01-15T11:26:32;8.80;;;3.30;;
74328;SDS011;62745;51.060;13.786;2024-01-15T11:34:20;6.90;;;3.03;;
74328;SDS011;62745;51.060;13.786;2024-01-15T11:41:52;7.45;;;3.10;;
74328;SDS011;62745;51.060;13.786;2024-01-15T11:44:17;8.32;;;3.63;;
74328;SDS011;62745;51.060;13.786;2024-01-15T11:46:43;7.43;;;3.63;;
74328;SDS011;62745;51.060;13.786;2024-01-15T11:49:35;8.60;;;3.22;;
74328;SDS011;62745;51.060;13.786;2024-01-15T11:52:23;6.78;;;3.85;;
74328;SDS011;62745;51.060;13.786;2024-01-15T11:57:37;5.57;;;2.90;;
74328;SDS011;62745;51.060;13.786;2024-01-15T12:00:06;6.97;;;2.83;;
74328;SDS011;62745;51.060;13.786;2024-01-15T12:02:34;6.35;;;2.70;;
74328;SDS011;62745;51.060;13.786;2024-01-15T12:04:59;7.57;;;2.85;;
74328;SDS011;62745;51.060;13.786;2024-01-15T12:07:24;6.90;;;3.13;;
74328;SDS011;62745;51.060;13.786;2024-01-15T12:09:49;8.43;;;3.33;;
74328;SDS011;62745;51.060;13.786;2024-01-15T12:12:18;8.35;;;3.22;;
74328;SDS011;62745;51.060;13.786;2024-01-15T12:14:52;6.10;;;2.92;;
74328;SDS011;62745;51.060;13.786;2024-01-15T12:17:17;6.57;;;3.03;;
74328;SDS011;62745;51.060;13.786;2024-01-15T12:19:43;10.05;;;3.60;;
74328;SDS011;62745;51.060;13.786;2024-01-15T12:22:08;7.20;;;3.58;;
74328;SDS011;62745;51.060;13.786;2024-01-15T12:24:34;7.05;;;2.58;;
74328;SDS011;62745;51.060;13.786;2024-01-15T12:27:00;8.63;;;2.72;;
74328;SDS011;62745;51.060;13.786;2024-01-15T12:29:26;8.43;;;3.42;;
74328;SDS011;62745;51.060;13.786;2024-01-15T12:31:52;5.72;;;3.15;;
74328;SDS011;62745;51.060;13.786;2024-01-15T12:34:18;6.68;;;2.85;;
74328;SDS011;62745;51.060;13.786;2024-01-15T12:36:45;8.00;;;3.55;;
74328;SDS011;62745;51.060;13.786;2024-01-15T12:39:11;6.93;;;3.10;;
74328;SDS011;62745;51.060;13.786;2024-01-15T12:41:40;8.25;;;3.60;;
74328;SDS011;62745;51.060;13.786;2024-01-15T12:44:06;9.10;;;3.45;;
74328;SDS011;62745;51.060;13.786;2024-01-15T12:46:31;6.03;;;2.67;;
74328;SDS011;62745;51.060;13.786;2024-01-15T12:48:57;6.38;;;2.97;;
74328;SDS011;62745;51.060;13.786;2024-01-15T12:51:25;8.40;;;2.63;;
74328;SDS011;62745;51.060;13.786;2024-01-15T12:53:51;7.88;;;3.10;;
74328;SDS011;62745;51.060;13.786;2024-01-15T12:56:16;8.77;;;3.60;;
74328;SDS011;62745;51.060;13.786;2024-01-15T12:58:42;7.43;;;3.20;;
74328;SDS011;62745;51.060;13.786;2024-01-15T13:01:07;6.40;;;3.30;;
74328;SDS011;62745;51.060;13.786;2024-01-15T13:03:32;8.03;;;3.60;;
74328;SDS011;62745;51.060;13.786;2024-01-15T13:05:59;8.63;;;4.03;;
74328;SDS011;62745;51.060;13.786;2024-01-15T13:08:24;5.43;;;2.40;;
74328;SDS011;62745;51.060;13.786;2024-01-15T13:10:52;5.78;;;2.70;;
74328;SDS011;62745;51.060;13.786;2024-01-15T13:13:21;7.45;;;3.45;;
74328;SDS011;62745;51.060;13.786;2024-01-15T13:15:46;7.00;;;3.20;;
74328;SDS011;62745;51.060;13.786;2024-01-15T13:18:11;7.03;;;2.97;;
74328;SDS011;62745;51.060;13.786;2024-01-15T13:20:37;12.63;;;4.47;;
74328;SDS011;62745;51.060;13.786;2024-01-15T13:23:02;12.35;;;4.30;;
74328;SDS011;62745;51.060;13.786;2024-01-15T13:25:29;9.52;;;3.58;;
74328;SDS011;62745;51.060;13.786;2024-01-15T13:27:54;8.93;;;2.92;;
74328;SDS011;62745;51.060;13.786;2024-01-15T13:30:19;6.47;;;2.57;;
74328;SDS011;62745;51.060;13.786;2024-01-15T13:32:45;9.15;;;3.97;;
74328;SDS011;62745;51.060;13.786;2024-01-15T13:35:10;9.65;;;3.70;;
74328;SDS011;62745;51.060;13.786;2024-01-15T13:37:38;7.07;;;3.00;;
74328;SDS011;62745;51.060;13.786;2024-01-15T13:40:06;8.52;;;3.22;;
74328;SDS011;62745;51.060;13.786;2024-01-15T13:42:33;7.45;;;2.75;;
74328;SDS011;62745;51.060;13.786;2024-01-15T13:44:59;9.07;;;4.93;;
74328;SDS011;62745;51.060;13.786;2024-01-15T13:47:24;7.38;;;3.40;;
74328;SDS011;62745;51.060;13.786;2024-01-15T13:49:49;8.13;;;3.47;;
74328;SDS011;62745;51.060;13.786;2024-01-15T13:52:14;8.70;;;3.87;;
74328;SDS011;62745;51.060;13.786;2024-01-15T13:54:40;9.93;;;3.90;;
74328;SDS011;62745;51.060;13.786;2024-01-15T13:57:05;8.07;;;3.90;;
74328;SDS011;62745;51.060;13.786;2024-01-15T13:59:31;7.57;;;3.53;;
74328;SDS011;62745;51.060;13.786;2024-01-15T14:01:57;10.85;;;4.38;;
74328;SDS011;62745;51.060;13.786;2024-01-15T14:04:22;8.47;;;3.83;;
74328;SDS011;62745;51.060;13.786;2024-01-15T14:06:47;9.17;;;4.13;;
74328;SDS011;62745;51.060;13.786;2024-01-15T14:09:13;9.65;;;4.30;;
74328;SDS011;62745;51.060;13.786;2024-01-15T14:11:39;8.10;;;3.30;;
74328;SDS011;62745;51.060;13.786;2024-01-15T14:14:05;7.45;;;3.10;;
74328;SDS011;62745;51.060;13.786;2024-01-15T14:16:30;9.23;;;4.45;;
74328;SDS011;62745;51.060;13.786;2024-01-15T14:18:55;7.93;;;3.15;;
74328;SDS011;62745;51.060;13.786;2024-01-15T14:21:20;8.30;;;3.77;;
74328;SDS011;62745;51.060;13.786;2024-01-15T14:23:46;8.77;;;4.70;;
74328;SDS011;62745;51.060;13.786;2024-01-15T14:26:11;6.68;;;3.15;;
74328;SDS011;62745;51.060;13.786;2024-01-15T14:28:36;9.10;;;4.23;;
74328;SDS011;62745;51.060;13.786;2024-01-15T14:31:02;7.77;;;3.23;;
74328;SDS011;62745;51.060;13.786;2024-01-15T14:33:27;9.45;;;3.80;;
74328;SDS011;62745;51.060;13.786;2024-01-15T14:35:53;9.60;;;3.30;;
74328;SDS011;62745;51.060;13.786;2024-01-15T14:38:18;8.82;;;3.47;;
74328;SDS011;62745;51.060;13.786;2024-01-15T14:40:43;7.00;;;2.93;;
74328;SDS011;62745;51.060;13.786;2024-01-15T14:43:09;7.17;;;3.37;;